Time;durP1;ratioP1;P1;durP2;ratioP2;P2;SDS_P1;SDS_P2;PMS_P1;PMS_P2;Temp;Humidity;BMP_temperature;BMP_pressure;BME280_temperature;BME280_humidity;BME280_pressure;Samples;Min_cycle;Max_cycle;Signal;HPM_P1;HPM_P2
2023/04/26 00:05:29;;;;;;;;;;;;;;;4.74;100.00;97764.06;18533556;32;20004;-57
2023/04/26 00:15:32;;;;;;;;;;;;;;;4.56;100.00;97762.28;18545673;32;20285;-57
2023/04/26 00:25:34;;;;;;;;;;;;;;;4.38;100.00;97780.03;18547564;31;20048;-57
2023/04/26 00:35:36;;;;;;;;;;;;;;;4.63;100.00;97775.59;18571900;32;19964;-57
2023/04/26 00:45:39;;;;;;;;;;;;;;;4.95;100.00;97767.25;18571231;32;19949;-57
2023/04/26 00:55:42;;;;;;;;;;;;;;;5.21;100.00;97771.38;18570579;32;20276;-57
2023/04/26 01:05:44;;;;;;;;;;;;;;;5.39;100.00;97767.75;18570006;32;19980;-57
2023/04/26 01:15:47;;;;;;;;;;;;;;;5.61;100.00;97776.00;18569583;32;19961;-58
2023/04/26 01:25:50;;;;;;;;;;;;;;;5.68;100.00;97768.66;18568741;32;19960;-57
2023/04/26 01:35:52;;;;;;;;;;;;;;;5.77;100.00;97769.13;18568000;32;19964;-57
2023/04/26 01:45:54;;;;;;;;;;;;;;;5.71;100.00;97770.84;18567320;31;19985;-57
2023/04/26 01:55:59;;;;;;;;;;;;;;;5.71;100.00;97762.81;18552984;32;19993;-57
2023/04/26 02:06:02;;;;;;;;;;;;;;;5.78;100.00;97754.63;18566476;32;19960;-57
2023/04/26 02:16:05;;;;;;;;;;;;;;;5.90;100.00;97759.97;18565904;32;19995;-57
2023/04/26 02:26:07;;;;;;;;;;;;;;;6.05;100.00;97759.50;18565009;32;19975;-57
2023/04/26 02:36:09;;;;;;;;;;;;;;;6.12;100.00;97754.00;18564439;32;20396;-57
2023/04/26 02:46:11;;;;;;;;;;;;;;;6.05;100.00;97757.63;18563783;32;19952;-57
2023/04/26 02:56:16;;;;;;;;;;;;;;;6.15;100.00;97757.00;18549019;32;20328;-57
2023/04/26 03:06:18;;;;;;;;;;;;;;;6.06;100.00;97758.44;18563016;32;20026;-57
2023/04/26 03:16:22;;;;;;;;;;;;;;;5.98;100.00;97737.34;18562293;32;19968;-57
2023/04/26 03:26:24;;;;;;;;;;;;;;;5.93;100.00;97735.34;18561537;32;19960;-57
2023/04/26 03:36:27;;;;;;;;;;;;;;;6.03;100.00;97727.53;18561443;32;19953;-57
2023/04/26 03:46:29;;;;;;;;;;;;;;;6.03;100.00;97740.13;18546680;32;20363;-57
2023/04/26 03:56:32;;;;;;;;;;;;;;;6.06;100.00;97731.59;18560969;32;19961;-57
2023/04/26 04:06:34;;;;;;;;;;;;;;;6.13;100.00;97723.41;18572038;32;19991;-57
2023/04/26 04:16:36;;;;;;;;;;;;;;;6.08;100.00;97710.69;18573582;32;19979;-57
2023/04/26 04:26:38;;;;;;;;;;;;;;;6.01;100.00;97715.41;18572145;31;20402;-57
2023/04/26 04:36:42;;;;;;;;;;;;;;;5.97;100.00;97722.28;18571934;32;19953;-57
2023/04/26 04:46:44;;;;;;;;;;;;;;;5.97;100.00;97725.75;18571144;32;19949;-57
2023/04/26 04:56:47;;;;;;;;;;;;;;;6.01;100.00;97723.44;18556420;32;19956;-57
2023/04/26 05:06:50;;;;;;;;;;;;;;;5.94;100.00;97731.59;18570125;32;19972;-57
2023/04/26 05:16:52;;;;;;;;;;;;;;;5.96;100.00;97745.63;18568785;32;19997;-57
2023/04/26 05:26:55;;;;;;;;;;;;;;;5.85;100.00;97760.69;18568647;32;19990;-57
2023/04/26 05:36:57;;;;;;;;;;;;;;;5.95;100.00;97773.50;18568161;32;19948;-57
2023/04/26 05:46:59;;;;;;;;;;;;;;;6.12;100.00;97776.28;18567787;32;20008;-57
2023/04/26 05:57:02;;;;;;;;;;;;;;;6.27;100.00;97789.19;18566839;32;19956;-58
2023/04/26 06:07:06;;;;;;;;;;;;;;;6.32;100.00;97796.50;18566636;32;20328;-57
2023/04/26 06:17:08;;;;;;;;;;;;;;;6.51;100.00;97797.13;18565553;32;20038;-57
2023/04/26 06:27:11;;;;;;;;;;;;;;;6.66;100.00;97796.59;18564832;32;19975;-56
2023/04/26 06:37:13;;;;;;;;;;;;;;;6.59;100.00;97818.25;18564541;32;19999;-57
2023/04/26 06:47:16;;;;;;;;;;;;;;;6.64;100.00;97812.97;18549471;32;19989;-58
2023/04/26 06:57:18;;;;;;;;;;;;;;;6.90;100.00;97808.84;18563316;32;19993;-57
2023/04/26 07:07:20;;;;;;;;;;;;;;;7.31;100.00;97799.84;18563003;32;20340;-58
2023/04/26 07:17:22;;;;;;;;;;;;;;;7.32;100.00;97788.84;18547599;32;20290;-58
2023/04/26 07:27:25;;;;;;;;;;;;;;;7.61;100.00;97789.53;18561548;32;19956;-57
2023/04/26 07:37:27;;;;;;;;;;;;;;;7.80;100.00;97800.03;18561002;32;19983;-57
2023/04/26 07:47:30;;;;;;;;;;;;;;;8.36;100.00;97786.44;18560903;32;20008;-58
2023/04/26 07:57:32;;;;;;;;;;;;;;;8.85;100.00;97782.87;18560922;32;19949;-58
2023/04/26 08:07:34;;;;;;;;;;;;;;;8.87;100.00;97785.34;18546457;32;19948;-57
2023/04/26 08:17:37;;;;;;;;;;;;;;;9.35;100.00;97783.56;18560292;32;20276;-57
2023/04/26 08:27:41;;;;;;;;;;;;;;;9.68;100.00;97792.41;18559500;32;19965;-58
2023/04/26 08:37:46;;;;;;;;;;;;;;;9.87;100.00;97775.75;18532664;32;20276;-58
2023/04/26 08:47:49;;;;;;;;;;;;;;;10.56;100.00;97790.09;18535591;32;19969;-57
2023/04/26 08:57:53;;;;;;;;;;;;;;;10.22;100.00;97794.00;18570377;31;19988;-58
2023/04/26 09:07:56;;;;;;;;;;;;;;;10.99;100.00;97782.56;18555681;32;20421;-58
2023/04/26 09:18:15;;;;;;;;;;;;;;;11.57;100.00;97785.00;18569593;32;20008;-58
2023/04/26 09:28:20;;;;;;;;;;;;;;;11.94;100.00;97793.84;18540950;32;19964;-58
2023/04/26 09:38:22;;;;;;;;;;;;;;;12.86;100.00;97790.72;18568604;32;20048;-58
2023/04/26 09:48:33;;;;;;;;;;;;;;;13.61;100.00;97793.38;18552799;32;19941;-58
2023/04/26 09:58:37;;;;;;;;;;;;;;;12.93;97.68;97786.88;18567539;32;19967;-58
2023/04/26 10:08:40;;;;;;;;;;;;;;;13.29;97.92;97783.87;18552437;32;20043;-58
2023/04/26 10:18:42;;;;;;;;;;;;;;;13.91;90.86;97784.13;18566003;32;20254;-58
2023/04/26 10:28:48;;;;;;;;;;;;;;;14.01;85.74;97780.47;18564968;32;20314;-58
2023/04/26 10:39:29;;;;;;;;;;;;;;;14.37;82.63;97780.81;18564798;32;19960;-58
2023/04/26 10:49:44;;;;;;;;;;;;;;;14.73;85.45;97776.84;18297711;32;20050;-58
2023/04/26 11:00:06;;;;;;;;;;;;;;;14.99;79.48;97777.28;18297083;32;19966;-58
2023/04/26 11:10:22;;;;;;;;;;;;;;;15.95;74.99;97761.47;18295818;32;19978;-58
2023/04/26 11:20:33;;;;;;;;;;;;;;;15.89;65.52;97765.41;18447400;32;20311;-58
2023/04/26 11:30:36;;;;;;;;;;;;;;;16.05;63.08;97749.56;18561607;32;19979;-57
2023/04/26 11:40:40;;;;;;;;;;;;;;;15.80;69.50;97742.66;18561171;31;19953;-57
2023/04/26 11:50:43;;;;;;;;;;;;;;;16.49;67.99;97728.16;18561071;32;19975;-58
2023/04/26 12:01:00;;;;;;;;;;;;;;;16.29;68.22;97721.22;18561198;32;20303;-57
2023/04/26 12:11:03;;;;;;;;;;;;;;;16.97;64.32;97713.16;18560931;32;20260;-58
2023/04/26 12:21:05;;;;;;;;;;;;;;;17.24;56.50;97721.19;18562692;32;19949;-57
2023/04/26 12:31:08;;;;;;;;;;;;;;;17.27;58.30;97717.84;18572317;32;20005;-58
2023/04/26 12:41:11;;;;;;;;;;;;;;;17.11;56.23;97705.69;18571744;32;19953;-58
2023/04/26 12:51:13;;;;;;;;;;;;;;;17.49;54.08;97702.50;18570955;32;19956;-57
2023/04/26 13:01:16;;;;;;;;;;;;;;;17.25;48.47;97695.50;18556467;32;19945;-57
2023/04/26 13:11:19;;;;;;;;;;;;;;;18.51;53.13;97695.22;18542992;32;20329;-57
2023/04/26 13:21:21;;;;;;;;;;;;;;;19.42;48.35;97689.81;18555508;32;19960;-58
2023/04/26 13:31:24;;;;;;;;;;;;;;;19.52;46.09;97676.87;18567822;32;20362;-57
2023/04/26 13:41:32;;;;;;;;;;;;;;;19.73;46.46;97669.50;18568478;32;19956;-58
2023/04/26 13:51:34;;;;;;;;;;;;;;;19.89;44.36;97675.28;18553783;32;19957;-58
2023/04/26 14:01:37;;;;;;;;;;;;;;;18.99;44.36;97668.78;18552664;32;19948;-58
2023/04/26 14:11:40;;;;;;;;;;;;;;;19.02;49.91;97672.81;18566240;32;19968;-57
2023/04/26 14:21:43;;;;;;;;;;;;;;;19.76;50.43;97674.34;18565774;32;19953;-58
2023/04/26 14:31:46;;;;;;;;;;;;;;;19.61;43.74;97680.38;18550179;32;20333;-58
2023/04/26 14:41:48;;;;;;;;;;;;;;;19.65;43.79;97662.13;18564905;32;19997;-58
2023/04/26 14:51:51;;;;;;;;;;;;;;;19.26;43.26;97650.34;18562694;32;19949;-58
2023/04/26 15:01:55;;;;;;;;;;;;;;;20.23;46.70;97640.50;18562676;32;20366;-58
2023/04/26 15:11:58;;;;;;;;;;;;;;;20.39;44.04;97640.72;18562165;32;19966;-58
2023/04/26 15:22:00;;;;;;;;;;;;;;;18.98;45.11;97637.06;18547590;31;19952;-58
2023/04/26 15:32:02;;;;;;;;;;;;;;;19.12;46.35;97639.59;18561643;32;19998;-58
2023/04/26 15:42:05;;;;;;;;;;;;;;;19.50;43.52;97646.22;18561165;32;19945;-58
2023/04/26 15:52:08;;;;;;;;;;;;;;;18.92;43.69;97635.63;18561158;32;19956;-58
2023/04/26 16:02:11;;;;;;;;;;;;;;;19.30;44.83;97632.91;18571798;32;19957;-58
2023/04/26 16:12:14;;;;;;;;;;;;;;;19.71;48.14;97627.91;18573478;32;19975;-58
2023/04/26 16:22:16;;;;;;;;;;;;;;;19.25;44.52;97626.81;18558945;32;20373;-58
2023/04/26 16:32:19;;;;;;;;;;;;;;;18.76;47.59;97629.81;18572074;32;19971;-58
2023/04/26 16:42:22;;;;;;;;;;;;;;;19.12;45.20;97623.94;18557519;32;20299;-58
2023/04/26 16:52:24;;;;;;;;;;;;;;;18.83;46.38;97632.88;18571215;32;19992;-58
2023/04/26 17:02:27;;;;;;;;;;;;;;;18.43;50.04;97635.78;18570779;32;19957;-58
2023/04/26 17:12:29;;;;;;;;;;;;;;;18.76;46.09;97619.66;18569102;31;19993;-58
2023/04/26 17:22:32;;;;;;;;;;;;;;;18.54;45.78;97625.31;18555638;32;20016;-58
2023/04/26 17:32:34;;;;;;;;;;;;;;;17.98;48.43;97630.63;18568792;32;19961;-58
2023/04/26 17:42:37;;;;;;;;;;;;;;;17.19;50.12;97644.03;18568298;32;19961;-58
2023/04/26 17:52:39;;;;;;;;;;;;;;;15.78;58.03;97630.37;18567760;32;19972;-58
2023/04/26 18:02:42;;;;;;;;;;;;;;;14.77;71.76;97630.87;18567087;32;19971;-58
2023/04/26 18:12:45;;;;;;;;;;;;;;;14.13;80.49;97630.50;18566243;32;20265;-58
2023/04/26 18:22:47;;;;;;;;;;;;;;;13.47;94.44;97643.84;18551616;32;19967;-58
2023/04/26 18:32:52;;;;;;;;;;;;;;;12.79;100.00;97630.13;18564913;32;20062;-57
2023/04/26 18:42:55;;;;;;;;;;;;;;;12.04;100.00;97642.06;18564506;32;19952;-57
2023/04/26 18:52:57;;;;;;;;;;;;;;;11.34;100.00;97667.25;18563969;32;19970;-57
2023/04/26 19:02:59;;;;;;;;;;;;;;;10.79;100.00;97662.47;18563498;32;19956;-58
2023/04/26 19:13:02;;;;;;;;;;;;;;;10.49;100.00;97677.63;18563161;32;19952;-58
2023/04/26 19:23:05;;;;;;;;;;;;;;;10.37;100.00;97692.47;18562267;32;19957;-57
2023/04/26 19:33:07;;;;;;;;;;;;;;;10.28;100.00;97705.69;18561658;32;20318;-57
2023/04/26 19:43:09;;;;;;;;;;;;;;;10.20;100.00;97708.91;18561465;32;19956;-58
2023/04/26 19:53:13;;;;;;;;;;;;;;;10.15;100.00;97713.22;18561223;32;20276;-57
2023/04/26 20:03:16;;;;;;;;;;;;;;;10.10;100.00;97726.72;18560831;32;19945;-57
2023/04/26 20:13:18;;;;;;;;;;;;;;;10.01;100.00;97726.38;18546248;32;19967;-57
2023/04/26 20:23:21;;;;;;;;;;;;;;;9.90;100.00;97726.62;18560561;32;20026;-57
2023/04/26 20:33:23;;;;;;;;;;;;;;;9.82;100.00;97726.03;18559681;32;20284;-57
2023/04/26 20:43:26;;;;;;;;;;;;;;;9.76;100.00;97734.41;18563822;32;19963;-57
2023/04/26 20:53:28;;;;;;;;;;;;;;;9.68;100.00;97730.31;18571243;32;19999;-58
2023/04/26 21:03:31;;;;;;;;;;;;;;;9.61;100.00;97735.94;18570947;32;19984;-57
2023/04/26 21:13:34;;;;;;;;;;;;;;;9.55;100.00;97730.78;18556191;32;20008;-57
2023/04/26 21:23:37;;;;;;;;;;;;;;;9.52;100.00;97740.22;18555686;32;19953;-57
2023/04/26 21:33:39;;;;;;;;;;;;;;;9.48;100.00;97747.19;18569112;32;20000;-56
2023/04/26 21:43:41;;;;;;;;;;;;;;;9.44;100.00;97736.13;18568350;31;19991;-57
2023/04/26 21:53:44;;;;;;;;;;;;;;;9.41;100.00;97742.03;18567660;32;19956;-57
2023/04/26 22:03:46;;;;;;;;;;;;;;;9.31;100.00;97741.97;18567241;32;19965;-57
2023/04/26 22:13:49;;;;;;;;;;;;;;;9.16;100.00;97740.78;18552276;32;20290;-57
2023/04/26 22:23:51;;;;;;;;;;;;;;;9.05;100.00;97763.38;18565956;32;19989;-57
2023/04/26 22:33:53;;;;;;;;;;;;;;;9.00;100.00;97757.94;18565366;32;19964;-57
2023/04/26 22:43:56;;;;;;;;;;;;;;;8.99;100.00;97761.72;18564434;32;20329;-57
2023/04/26 22:53:58;;;;;;;;;;;;;;;8.95;100.00;97764.09;18563988;32;19965;-57
2023/04/26 23:04:01;;;;;;;;;;;;;;;8.91;100.00;97765.69;18563293;32;20008;-56
2023/04/26 23:14:03;;;;;;;;;;;;;;;8.86;100.00;97775.63;18563059;32;19952;-57
2023/04/26 23:24:08;;;;;;;;;;;;;;;8.64;100.00;97776.50;18548810;32;19948;-58
2023/04/26 23:34:10;;;;;;;;;;;;;;;8.50;100.00;97768.00;18547134;32;20059;-57
2023/04/26 23:44:12;;;;;;;;;;;;;;;8.58;100.00;97769.44;18561421;32;20360;-57
2023/04/26 23:54:14;;;;;;;;;;;;;;;8.62;100.00;97762.47;18561382;32;20348;-57
